sensor_id;sensor_type;location;lat;lon;timestamp;P1;durP1;ratioP1;P2;durP2;ratioP2
16189;SDS011;41754;51.498;7.540;2022-12-10T00:00:17;49.40;;;30.03;;
16189;SDS011;41754;51.498;7.540;2022-12-10T00:02:44;45.67;;;29.07;;
16189;SDS011;41754;51.498;7.540;2022-12-10T00:05:12;46.27;;;29.90;;
16189;SDS011;41754;51.498;7.540;2022-12-10T00:07:40;46.40;;;30.80;;
16189;SDS011;41754;51.498;7.540;2022-12-10T00:10:08;49.93;;;31.70;;
16189;SDS011;41754;51.498;7.540;2022-12-10T00:12:38;43.33;;;29.13;;
16189;SDS011;41754;51.498;7.540;2022-12-10T00:15:06;44.07;;;27.67;;
16189;SDS011;41754;51.498;7.540;2022-12-10T00:17:34;45.87;;;29.53;;
16189;SDS011;41754;51.498;7.540;2022-12-10T00:20:02;44.70;;;27.07;;
16189;SDS011;41754;51.498;7.540;2022-12-10T00:22:31;46.73;;;27.87;;
16189;SDS011;41754;51.498;7.540;2022-12-10T00:24:58;40.10;;;26.33;;
16189;SDS011;41754;51.498;7.540;2022-12-10T00:27:26;41.10;;;26.73;;
16189;SDS011;41754;51.498;7.540;2022-12-10T00:29:55;43.43;;;26.77;;
16189;SDS011;41754;51.498;7.540;2022-12-10T00:32:23;44.60;;;28.10;;
16189;SDS011;41754;51.498;7.540;2022-12-10T00:34:51;43.53;;;27.10;;
16189;SDS011;41754;51.498;7.540;2022-12-10T00:37:19;44.60;;;27.83;;
16189;SDS011;41754;51.498;7.540;2022-12-10T00:39:47;42.63;;;27.67;;
16189;SDS011;41754;51.498;7.540;2022-12-10T00:42:15;42.43;;;27.63;;
16189;SDS011;41754;51.498;7.540;2022-12-10T00:44:44;43.00;;;27.00;;
16189;SDS011;41754;51.498;7.540;2022-12-10T00:47:13;43.10;;;27.37;;
16189;SDS011;41754;51.498;7.540;2022-12-10T00:49:41;42.23;;;27.33;;
16189;SDS011;41754;51.498;7.540;2022-12-10T00:52:09;41.60;;;26.90;;
16189;SDS011;41754;51.498;7.540;2022-12-10T00:54:37;42.13;;;26.27;;
16189;SDS011;41754;51.498;7.540;2022-12-10T00:57:05;42.43;;;26.43;;
16189;SDS011;41754;51.498;7.540;2022-12-10T00:59:32;37.00;;;25.37;;
16189;SDS011;41754;51.498;7.540;2022-12-10T01:02:00;37.17;;;24.53;;
16189;SDS011;41754;51.498;7.540;2022-12-10T01:04:29;38.20;;;25.67;;
16189;SDS011;41754;51.498;7.540;2022-12-10T01:06:57;38.13;;;24.87;;
16189;SDS011;41754;51.498;7.540;2022-12-10T01:09:28;40.10;;;25.87;;
16189;SDS011;41754;51.498;7.540;2022-12-10T01:11:59;39.20;;;25.23;;
16189;SDS011;41754;51.498;7.540;2022-12-10T01:14:30;40.87;;;25.17;;
16189;SDS011;41754;51.498;7.540;2022-12-10T01:17:00;38.87;;;25.17;;
16189;SDS011;41754;51.498;7.540;2022-12-10T01:19:31;39.23;;;25.17;;
16189;SDS011;41754;51.498;7.540;2022-12-10T01:22:01;39.93;;;24.37;;
16189;SDS011;41754;51.498;7.540;2022-12-10T01:24:29;39.20;;;25.60;;
16189;SDS011;41754;51.498;7.540;2022-12-10T01:26:57;39.90;;;25.30;;
16189;SDS011;41754;51.498;7.540;2022-12-10T01:29:26;36.23;;;25.10;;
16189;SDS011;41754;51.498;7.540;2022-12-10T01:31:55;39.67;;;24.70;;
16189;SDS011;41754;51.498;7.540;2022-12-10T01:34:23;39.43;;;24.60;;
16189;SDS011;41754;51.498;7.540;2022-12-10T01:36:56;39.77;;;24.93;;
16189;SDS011;41754;51.498;7.540;2022-12-10T01:39:24;40.10;;;24.50;;
16189;SDS011;41754;51.498;7.540;2022-12-10T01:41:53;37.67;;;24.10;;
16189;SDS011;41754;51.498;7.540;2022-12-10T01:47:26;40.37;;;23.13;;
16189;SDS011;41754;51.498;7.540;2022-12-10T01:49:54;32.80;;;22.40;;
16189;SDS011;41754;51.498;7.540;2022-12-10T01:52:23;36.20;;;23.73;;
16189;SDS011;41754;51.498;7.540;2022-12-10T01:54:51;40.23;;;25.10;;
16189;SDS011;41754;51.498;7.540;2022-12-10T01:57:20;37.80;;;24.27;;
16189;SDS011;41754;51.498;7.540;2022-12-10T01:59:50;38.13;;;24.27;;
16189;SDS011;41754;51.498;7.540;2022-12-10T02:02:21;37.83;;;24.00;;
16189;SDS011;41754;51.498;7.540;2022-12-10T02:04:57;39.13;;;25.50;;
16189;SDS011;41754;51.498;7.540;2022-12-10T02:07:35;41.87;;;24.63;;
16189;SDS011;41754;51.498;7.540;2022-12-10T02:10:08;36.93;;;24.83;;
16189;SDS011;41754;51.498;7.540;2022-12-10T02:12:46;36.27;;;24.03;;
16189;SDS011;41754;51.498;7.540;2022-12-10T02:15:16;36.03;;;24.20;;
16189;SDS011;41754;51.498;7.540;2022-12-10T02:17:47;36.10;;;23.30;;
16189;SDS011;41754;51.498;7.540;2022-12-10T02:20:18;36.07;;;23.60;;
16189;SDS011;41754;51.498;7.540;2022-12-10T02:22:50;33.57;;;22.53;;
16189;SDS011;41754;51.498;7.540;2022-12-10T02:25:22;37.63;;;23.87;;
16189;SDS011;41754;51.498;7.540;2022-12-10T02:27:54;34.70;;;23.97;;
16189;SDS011;41754;51.498;7.540;2022-12-10T02:30:28;30.37;;;20.27;;
16189;SDS011;41754;51.498;7.540;2022-12-10T02:32:57;30.83;;;20.93;;
16189;SDS011;41754;51.498;7.540;2022-12-10T02:35:27;33.80;;;22.10;;
16189;SDS011;41754;51.498;7.540;2022-12-10T02:37:57;37.10;;;22.77;;
16189;SDS011;41754;51.498;7.540;2022-12-10T02:40:30;33.40;;;22.23;;
16189;SDS011;41754;51.498;7.540;2022-12-10T02:43:00;36.20;;;23.00;;
16189;SDS011;41754;51.498;7.540;2022-12-10T02:45:30;36.87;;;22.17;;
16189;SDS011;41754;51.498;7.540;2022-12-10T02:48:00;35.40;;;23.10;;
16189;SDS011;41754;51.498;7.540;2022-12-10T02:50:35;35.90;;;23.17;;
16189;SDS011;41754;51.498;7.540;2022-12-10T02:53:03;34.63;;;23.73;;
16189;SDS011;41754;51.498;7.540;2022-12-10T02:55:35;37.33;;;23.40;;
16189;SDS011;41754;51.498;7.540;2022-12-10T02:58:10;37.13;;;23.23;;
16189;SDS011;41754;51.498;7.540;2022-12-10T03:00:45;33.80;;;22.47;;
16189;SDS011;41754;51.498;7.540;2022-12-10T03:03:24;36.53;;;23.33;;
16189;SDS011;41754;51.498;7.540;2022-12-10T03:05:56;34.17;;;22.77;;
16189;SDS011;41754;51.498;7.540;2022-12-10T03:08:28;34.80;;;22.67;;
16189;SDS011;41754;51.498;7.540;2022-12-10T03:10:59;35.03;;;22.97;;
16189;SDS011;41754;51.498;7.540;2022-12-10T03:13:32;35.70;;;22.57;;
16189;SDS011;41754;51.498;7.540;2022-12-10T03:16:02;35.17;;;22.30;;
16189;SDS011;41754;51.498;7.540;2022-12-10T03:18:31;35.93;;;23.50;;
16189;SDS011;41754;51.498;7.540;2022-12-10T03:21:02;36.23;;;23.53;;
16189;SDS011;41754;51.498;7.540;2022-12-10T03:23:31;34.27;;;21.33;;
16189;SDS011;41754;51.498;7.540;2022-12-10T03:26:00;30.43;;;18.77;;
16189;SDS011;41754;51.498;7.540;2022-12-10T03:28:29;27.77;;;18.77;;
16189;SDS011;41754;51.498;7.540;2022-12-10T03:30:58;26.37;;;16.80;;
16189;SDS011;41754;51.498;7.540;2022-12-10T03:33:27;23.93;;;15.97;;
16189;SDS011;41754;51.498;7.540;2022-12-10T03:35:55;28.63;;;17.70;;
16189;SDS011;41754;51.498;7.540;2022-12-10T03:38:23;32.33;;;20.13;;
16189;SDS011;41754;51.498;7.540;2022-12-10T03:40:51;29.10;;;18.43;;
16189;SDS011;41754;51.498;7.540;2022-12-10T03:43:20;29.63;;;19.70;;
16189;SDS011;41754;51.498;7.540;2022-12-10T03:45:49;31.90;;;19.67;;
16189;SDS011;41754;51.498;7.540;2022-12-10T03:48:17;33.47;;;20.47;;
16189;SDS011;41754;51.498;7.540;2022-12-10T03:50:46;36.07;;;22.07;;
16189;SDS011;41754;51.498;7.540;2022-12-10T03:53:13;34.07;;;21.23;;
16189;SDS011;41754;51.498;7.540;2022-12-10T03:55:41;32.00;;;19.37;;
16189;SDS011;41754;51.498;7.540;2022-12-10T03:58:09;26.03;;;17.33;;
16189;SDS011;41754;51.498;7.540;2022-12-10T04:00:44;24.67;;;16.07;;
16189;SDS011;41754;51.498;7.540;2022-12-10T04:03:11;24.27;;;16.10;;
16189;SDS011;41754;51.498;7.540;2022-12-10T04:05:40;22.77;;;14.20;;
16189;SDS011;41754;51.498;7.540;2022-12-10T04:08:09;23.13;;;14.73;;
16189;SDS011;41754;51.498;7.540;2022-12-10T04:10:37;25.27;;;14.93;;
16189;SDS011;41754;51.498;7.540;2022-12-10T04:13:05;25.53;;;16.50;;
16189;SDS011;41754;51.498;7.540;2022-12-10T04:15:47;25.00;;;15.70;;
16189;SDS011;41754;51.498;7.540;2022-12-10T04:18:32;24.90;;;14.87;;
16189;SDS011;41754;51.498;7.540;2022-12-10T04:21:00;23.90;;;15.03;;
16189;SDS011;41754;51.498;7.540;2022-12-10T04:23:47;23.87;;;14.93;;
16189;SDS011;41754;51.498;7.540;2022-12-10T04:26:32;22.53;;;14.57;;
16189;SDS011;41754;51.498;7.540;2022-12-10T04:29:23;23.03;;;15.70;;
16189;SDS011;41754;51.498;7.540;2022-12-10T04:31:53;23.90;;;15.83;;
16189;SDS011;41754;51.498;7.540;2022-12-10T04:34:21;22.13;;;15.17;;
16189;SDS011;41754;51.498;7.540;2022-12-10T04:36:50;23.00;;;15.30;;
16189;SDS011;41754;51.498;7.540;2022-12-10T04:39:19;29.23;;;17.90;;
16189;SDS011;41754;51.498;7.540;2022-12-10T04:41:47;25.17;;;15.47;;
16189;SDS011;41754;51.498;7.540;2022-12-10T04:44:16;23.70;;;16.67;;
16189;SDS011;41754;51.498;7.540;2022-12-10T04:46:44;23.67;;;15.27;;
16189;SDS011;41754;51.498;7.540;2022-12-10T04:49:14;22.57;;;14.90;;
16189;SDS011;41754;51.498;7.540;2022-12-10T04:51:42;24.40;;;15.60;;
16189;SDS011;41754;51.498;7.540;2022-12-10T04:54:10;23.00;;;14.83;;
16189;SDS011;41754;51.498;7.540;2022-12-10T04:56:40;21.67;;;14.80;;
16189;SDS011;41754;51.498;7.540;2022-12-10T04:59:08;21.83;;;14.63;;
16189;SDS011;41754;51.498;7.540;2022-12-10T05:01:36;29.67;;;16.13;;
16189;SDS011;41754;51.498;7.540;2022-12-10T05:04:05;23.90;;;15.17;;
16189;SDS011;41754;51.498;7.540;2022-12-10T05:06:34;23.20;;;14.77;;
16189;SDS011;41754;51.498;7.540;2022-12-10T05:09:02;20.90;;;14.43;;
16189;SDS011;41754;51.498;7.540;2022-12-10T05:11:31;22.63;;;14.67;;
16189;SDS011;41754;51.498;7.540;2022-12-10T05:14:01;23.63;;;14.40;;
16189;SDS011;41754;51.498;7.540;2022-12-10T05:16:29;21.10;;;14.13;;
16189;SDS011;41754;51.498;7.540;2022-12-10T05:18:59;22.07;;;13.93;;
16189;SDS011;41754;51.498;7.540;2022-12-10T05:21:28;23.30;;;14.30;;
16189;SDS011;41754;51.498;7.540;2022-12-10T05:24:17;20.73;;;14.10;;
16189;SDS011;41754;51.498;7.540;2022-12-10T05:26:44;21.57;;;14.13;;
16189;SDS011;41754;51.498;7.540;2022-12-10T05:29:14;22.03;;;14.30;;
16189;SDS011;41754;51.498;7.540;2022-12-10T05:31:41;24.07;;;14.67;;
16189;SDS011;41754;51.498;7.540;2022-12-10T05:34:10;22.00;;;13.97;;
16189;SDS011;41754;51.498;7.540;2022-12-10T05:36:38;21.13;;;13.87;;
16189;SDS011;41754;51.498;7.540;2022-12-10T05:39:06;19.37;;;14.00;;
16189;SDS011;41754;51.498;7.540;2022-12-10T05:41:35;21.67;;;13.60;;
16189;SDS011;41754;51.498;7.540;2022-12-10T05:44:04;19.67;;;13.23;;
16189;SDS011;41754;51.498;7.540;2022-12-10T05:46:35;22.43;;;14.33;;
16189;SDS011;41754;51.498;7.540;2022-12-10T05:49:03;22.20;;;14.33;;
16189;SDS011;41754;51.498;7.540;2022-12-10T05:51:32;22.87;;;14.70;;
16189;SDS011;41754;51.498;7.540;2022-12-10T05:54:03;18.57;;;13.40;;
16189;SDS011;41754;51.498;7.540;2022-12-10T05:56:31;21.93;;;14.27;;
16189;SDS011;41754;51.498;7.540;2022-12-10T05:59:01;21.67;;;14.17;;
16189;SDS011;41754;51.498;7.540;2022-12-10T06:01:30;19.17;;;12.57;;
16189;SDS011;41754;51.498;7.540;2022-12-10T06:04:01;23.93;;;14.57;;
16189;SDS011;41754;51.498;7.540;2022-12-10T06:06:30;21.73;;;14.20;;
16189;SDS011;41754;51.498;7.540;2022-12-10T06:08:59;20.93;;;13.13;;
16189;SDS011;41754;51.498;7.540;2022-12-10T06:11:27;20.27;;;13.70;;
16189;SDS011;41754;51.498;7.540;2022-12-10T06:13:56;21.27;;;14.03;;
16189;SDS011;41754;51.498;7.540;2022-12-10T06:16:25;20.33;;;13.63;;
16189;SDS011;41754;51.498;7.540;2022-12-10T06:18:54;20.73;;;14.00;;
16189;SDS011;41754;51.498;7.540;2022-12-10T06:21:24;33.67;;;20.23;;
16189;SDS011;41754;51.498;7.540;2022-12-10T06:23:52;19.83;;;13.70;;
16189;SDS011;41754;51.498;7.540;2022-12-10T06:26:21;21.17;;;14.20;;
16189;SDS011;41754;51.498;7.540;2022-12-10T06:28:50;21.80;;;14.07;;
16189;SDS011;41754;51.498;7.540;2022-12-10T06:31:18;20.13;;;13.73;;
16189;SDS011;41754;51.498;7.540;2022-12-10T06:33:46;20.60;;;13.83;;
16189;SDS011;41754;51.498;7.540;2022-12-10T06:36:15;21.93;;;13.83;;
16189;SDS011;41754;51.498;7.540;2022-12-10T06:38:45;20.80;;;13.33;;
16189;SDS011;41754;51.498;7.540;2022-12-10T06:41:14;18.53;;;13.27;;
16189;SDS011;41754;51.498;7.540;2022-12-10T06:43:42;21.50;;;14.60;;
16189;SDS011;41754;51.498;7.540;2022-12-10T06:46:11;20.43;;;13.80;;
16189;SDS011;41754;51.498;7.540;2022-12-10T06:48:39;21.63;;;15.20;;
16189;SDS011;41754;51.498;7.540;2022-12-10T06:51:08;22.13;;;15.03;;
16189;SDS011;41754;51.498;7.540;2022-12-10T06:53:36;21.60;;;14.93;;
16189;SDS011;41754;51.498;7.540;2022-12-10T06:56:06;22.60;;;15.13;;
16189;SDS011;41754;51.498;7.540;2022-12-10T06:58:34;22.47;;;14.63;;
16189;SDS011;41754;51.498;7.540;2022-12-10T07:01:03;21.33;;;14.60;;
16189;SDS011;41754;51.498;7.540;2022-12-10T07:03:31;18.00;;;13.03;;
16189;SDS011;41754;51.498;7.540;2022-12-10T07:06:00;22.73;;;14.73;;
16189;SDS011;41754;51.498;7.540;2022-12-10T07:08:28;18.13;;;12.63;;
16189;SDS011;41754;51.498;7.540;2022-12-10T07:10:56;18.03;;;13.23;;
16189;SDS011;41754;51.498;7.540;2022-12-10T07:13:25;20.97;;;14.30;;
16189;SDS011;41754;51.498;7.540;2022-12-10T07:15:56;21.67;;;14.47;;
16189;SDS011;41754;51.498;7.540;2022-12-10T07:18:24;23.33;;;14.57;;
16189;SDS011;41754;51.498;7.540;2022-12-10T07:20:52;19.90;;;13.27;;
16189;SDS011;41754;51.498;7.540;2022-12-10T07:23:20;17.90;;;12.60;;
16189;SDS011;41754;51.498;7.540;2022-12-10T07:25:48;19.33;;;13.37;;
16189;SDS011;41754;51.498;7.540;2022-12-10T07:28:15;20.60;;;13.60;;
16189;SDS011;41754;51.498;7.540;2022-12-10T07:30:44;23.63;;;14.43;;
16189;SDS011;41754;51.498;7.540;2022-12-10T07:33:12;17.63;;;12.10;;
16189;SDS011;41754;51.498;7.540;2022-12-10T07:35:40;19.80;;;12.90;;
16189;SDS011;41754;51.498;7.540;2022-12-10T07:38:14;18.67;;;12.90;;
16189;SDS011;41754;51.498;7.540;2022-12-10T07:40:42;20.77;;;14.23;;
16189;SDS011;41754;51.498;7.540;2022-12-10T07:43:11;20.47;;;13.47;;
16189;SDS011;41754;51.498;7.540;2022-12-10T07:45:39;20.97;;;14.33;;
16189;SDS011;41754;51.498;7.540;2022-12-10T07:48:08;22.07;;;14.63;;
16189;SDS011;41754;51.498;7.540;2022-12-10T07:50:36;19.63;;;13.67;;
16189;SDS011;41754;51.498;7.540;2022-12-10T07:53:04;19.37;;;13.87;;
16189;SDS011;41754;51.498;7.540;2022-12-10T07:55:32;19.87;;;13.40;;
16189;SDS011;41754;51.498;7.540;2022-12-10T07:58:00;19.13;;;12.97;;
16189;SDS011;41754;51.498;7.540;2022-12-10T08:00:28;18.07;;;12.70;;
16189;SDS011;41754;51.498;7.540;2022-12-10T08:02:55;16.60;;;12.27;;
16189;SDS011;41754;51.498;7.540;2022-12-10T08:05:25;18.20;;;12.60;;
16189;SDS011;41754;51.498;7.540;2022-12-10T08:07:53;20.03;;;13.57;;
16189;SDS011;41754;51.498;7.540;2022-12-10T08:10:29;20.13;;;13.40;;
16189;SDS011;41754;51.498;7.540;2022-12-10T08:12:57;21.07;;;13.43;;
16189;SDS011;41754;51.498;7.540;2022-12-10T08:15:25;18.87;;;13.20;;
16189;SDS011;41754;51.498;7.540;2022-12-10T08:17:54;19.13;;;13.27;;
16189;SDS011;41754;51.498;7.540;2022-12-10T08:20:22;20.07;;;13.43;;
16189;SDS011;41754;51.498;7.540;2022-12-10T08:22:51;22.60;;;13.93;;
16189;SDS011;41754;51.498;7.540;2022-12-10T08:25:19;21.47;;;13.90;;
16189;SDS011;41754;51.498;7.540;2022-12-10T08:27:47;18.37;;;12.63;;
16189;SDS011;41754;51.498;7.540;2022-12-10T08:30:15;19.47;;;13.03;;
16189;SDS011;41754;51.498;7.540;2022-12-10T08:32:42;18.10;;;11.90;;
16189;SDS011;41754;51.498;7.540;2022-12-10T08:35:10;19.77;;;13.43;;
16189;SDS011;41754;51.498;7.540;2022-12-10T08:37:40;20.37;;;13.77;;
16189;SDS011;41754;51.498;7.540;2022-12-10T08:40:10;20.30;;;13.37;;
16189;SDS011;41754;51.498;7.540;2022-12-10T08:42:38;20.40;;;13.40;;
16189;SDS011;41754;51.498;7.540;2022-12-10T08:45:06;18.33;;;12.30;;
16189;SDS011;41754;51.498;7.540;2022-12-10T08:47:35;18.23;;;13.00;;
16189;SDS011;41754;51.498;7.540;2022-12-10T08:50:03;20.83;;;14.07;;
16189;SDS011;41754;51.498;7.540;2022-12-10T08:52:31;18.30;;;12.63;;
16189;SDS011;41754;51.498;7.540;2022-12-10T08:54:59;22.30;;;12.93;;
16189;SDS011;41754;51.498;7.540;2022-12-10T08:57:28;19.17;;;12.97;;
16189;SDS011;41754;51.498;7.540;2022-12-10T08:59:56;20.93;;;14.23;;
16189;SDS011;41754;51.498;7.540;2022-12-10T09:02:24;21.23;;;15.53;;
16189;SDS011;41754;51.498;7.540;2022-12-10T09:04:52;21.47;;;14.33;;
16189;SDS011;41754;51.498;7.540;2022-12-10T09:07:20;22.07;;;13.77;;
16189;SDS011;41754;51.498;7.540;2022-12-10T09:09:48;20.23;;;13.97;;
16189;SDS011;41754;51.498;7.540;2022-12-10T09:12:16;19.20;;;13.27;;
16189;SDS011;41754;51.498;7.540;2022-12-10T09:14:45;18.43;;;13.03;;
16189;SDS011;41754;51.498;7.540;2022-12-10T09:17:13;19.83;;;12.17;;
16189;SDS011;41754;51.498;7.540;2022-12-10T09:19:41;27.87;;;18.23;;
16189;SDS011;41754;51.498;7.540;2022-12-10T09:22:08;22.07;;;14.87;;
16189;SDS011;41754;51.498;7.540;2022-12-10T09:24:36;23.20;;;14.43;;
16189;SDS011;41754;51.498;7.540;2022-12-10T09:27:04;18.50;;;12.50;;
16189;SDS011;41754;51.498;7.540;2022-12-10T09:29:32;18.43;;;12.00;;
16189;SDS011;41754;51.498;7.540;2022-12-10T09:32:01;16.90;;;11.23;;
16189;SDS011;41754;51.498;7.540;2022-12-10T09:34:29;17.03;;;12.33;;
16189;SDS011;41754;51.498;7.540;2022-12-10T09:36:57;18.47;;;11.77;;
16189;SDS011;41754;51.498;7.540;2022-12-10T09:39:24;17.17;;;11.93;;
16189;SDS011;41754;51.498;7.540;2022-12-10T09:42:02;16.37;;;12.57;;
16189;SDS011;41754;51.498;7.540;2022-12-10T09:44:41;21.33;;;13.20;;
16189;SDS011;41754;51.498;7.540;2022-12-10T09:47:15;19.03;;;12.53;;
16189;SDS011;41754;51.498;7.540;2022-12-10T09:49:50;18.97;;;12.70;;
16189;SDS011;41754;51.498;7.540;2022-12-10T09:52:23;20.00;;;13.07;;
16189;SDS011;41754;51.498;7.540;2022-12-10T09:54:56;17.90;;;12.93;;
16189;SDS011;41754;51.498;7.540;2022-12-10T09:57:25;19.67;;;13.77;;
16189;SDS011;41754;51.498;7.540;2022-12-10T09:59:56;18.03;;;13.17;;
16189;SDS011;41754;51.498;7.540;2022-12-10T10:02:38;17.73;;;12.13;;
16189;SDS011;41754;51.498;7.540;2022-12-10T10:05:09;17.70;;;12.17;;
16189;SDS011;41754;51.498;7.540;2022-12-10T10:07:39;18.47;;;12.50;;
16189;SDS011;41754;51.498;7.540;2022-12-10T10:10:22;18.70;;;12.47;;
16189;SDS011;41754;51.498;7.540;2022-12-10T10:12:54;22.23;;;13.53;;
16189;SDS011;41754;51.498;7.540;2022-12-10T10:15:24;18.77;;;13.13;;
16189;SDS011;41754;51.498;7.540;2022-12-10T10:17:59;16.17;;;11.30;;
16189;SDS011;41754;51.498;7.540;2022-12-10T10:20:30;16.30;;;11.90;;
16189;SDS011;41754;51.498;7.540;2022-12-10T10:22:58;18.07;;;12.47;;
16189;SDS011;41754;51.498;7.540;2022-12-10T10:25:26;16.40;;;11.33;;
16189;SDS011;41754;51.498;7.540;2022-12-10T10:27:55;20.47;;;12.73;;
16189;SDS011;41754;51.498;7.540;2022-12-10T10:30:23;17.70;;;12.83;;
16189;SDS011;41754;51.498;7.540;2022-12-10T10:32:52;18.10;;;12.57;;
16189;SDS011;41754;51.498;7.540;2022-12-10T10:35:24;16.80;;;12.23;;
16189;SDS011;41754;51.498;7.540;2022-12-10T10:38:01;15.93;;;11.73;;
16189;SDS011;41754;51.498;7.540;2022-12-10T10:40:30;17.00;;;12.20;;
16189;SDS011;41754;51.498;7.540;2022-12-10T10:43:00;16.07;;;11.20;;
16189;SDS011;41754;51.498;7.540;2022-12-10T10:45:30;15.07;;;11.60;;
16189;SDS011;41754;51.498;7.540;2022-12-10T10:48:05;18.23;;;12.10;;
16189;SDS011;41754;51.498;7.540;2022-12-10T10:50:38;18.27;;;12.93;;
16189;SDS011;41754;51.498;7.540;2022-12-10T10:53:20;22.20;;;13.50;;
16189;SDS011;41754;51.498;7.540;2022-12-10T10:56:06;22.20;;;13.40;;
16189;SDS011;41754;51.498;7.540;2022-12-10T10:58:35;21.27;;;13.73;;
16189;SDS011;41754;51.498;7.540;2022-12-10T11:01:04;19.53;;;12.80;;
16189;SDS011;41754;51.498;7.540;2022-12-10T11:03:34;21.90;;;14.20;;
16189;SDS011;41754;51.498;7.540;2022-12-10T11:06:06;21.37;;;13.40;;
16189;SDS011;41754;51.498;7.540;2022-12-10T11:08:37;20.77;;;14.07;;
16189;SDS011;41754;51.498;7.540;2022-12-10T11:11:06;20.40;;;13.80;;
16189;SDS011;41754;51.498;7.540;2022-12-10T11:13:39;20.70;;;12.37;;
16189;SDS011;41754;51.498;7.540;2022-12-10T11:16:11;17.23;;;12.23;;
16189;SDS011;41754;51.498;7.540;2022-12-10T11:18:43;17.43;;;11.93;;
16189;SDS011;41754;51.498;7.540;2022-12-10T11:21:20;17.70;;;11.77;;
16189;SDS011;41754;51.498;7.540;2022-12-10T11:23:51;20.60;;;14.07;;
16189;SDS011;41754;51.498;7.540;2022-12-10T11:29:15;25.30;;;16.97;;
16189;SDS011;41754;51.498;7.540;2022-12-10T11:31:54;37.07;;;23.03;;
16189;SDS011;41754;51.498;7.540;2022-12-10T11:34:30;41.27;;;24.37;;
16189;SDS011;41754;51.498;7.540;2022-12-10T11:37:09;37.50;;;23.17;;
16189;SDS011;41754;51.498;7.540;2022-12-10T11:39:48;34.63;;;20.77;;
16189;SDS011;41754;51.498;7.540;2022-12-10T11:42:26;34.60;;;22.77;;
16189;SDS011;41754;51.498;7.540;2022-12-10T11:44:58;41.10;;;23.30;;
16189;SDS011;41754;51.498;7.540;2022-12-10T11:47:34;39.70;;;21.87;;
16189;SDS011;41754;51.498;7.540;2022-12-10T11:50:14;33.20;;;21.53;;
16189;SDS011;41754;51.498;7.540;2022-12-10T11:52:53;37.43;;;22.50;;
16189;SDS011;41754;51.498;7.540;2022-12-10T11:55:30;34.57;;;21.70;;
16189;SDS011;41754;51.498;7.540;2022-12-10T11:58:04;36.13;;;21.83;;
16189;SDS011;41754;51.498;7.540;2022-12-10T12:00:46;36.63;;;22.70;;
16189;SDS011;41754;51.498;7.540;2022-12-10T12:03:32;39.73;;;23.50;;
16189;SDS011;41754;51.498;7.540;2022-12-10T12:06:11;37.67;;;21.53;;
16189;SDS011;41754;51.498;7.540;2022-12-10T12:08:54;38.07;;;22.23;;
16189;SDS011;41754;51.498;7.540;2022-12-10T12:11:29;38.07;;;22.17;;
16189;SDS011;41754;51.498;7.540;2022-12-10T12:14:07;35.47;;;21.40;;
16189;SDS011;41754;51.498;7.540;2022-12-10T12:16:40;42.80;;;24.03;;
16189;SDS011;41754;51.498;7.540;2022-12-10T12:19:12;36.37;;;22.20;;
16189;SDS011;41754;51.498;7.540;2022-12-10T12:21:42;36.77;;;22.97;;
16189;SDS011;41754;51.498;7.540;2022-12-10T12:24:14;36.67;;;22.90;;
16189;SDS011;41754;51.498;7.540;2022-12-10T12:26:45;34.30;;;21.83;;
16189;SDS011;41754;51.498;7.540;2022-12-10T12:29:17;38.67;;;22.83;;
16189;SDS011;41754;51.498;7.540;2022-12-10T12:31:48;37.03;;;23.40;;
16189;SDS011;41754;51.498;7.540;2022-12-10T12:34:23;34.70;;;22.13;;
16189;SDS011;41754;51.498;7.540;2022-12-10T12:36:53;37.90;;;23.47;;
16189;SDS011;41754;51.498;7.540;2022-12-10T12:39:27;36.57;;;22.63;;
16189;SDS011;41754;51.498;7.540;2022-12-10T12:42:01;34.90;;;21.67;;
16189;SDS011;41754;51.498;7.540;2022-12-10T12:44:33;35.93;;;21.77;;
16189;SDS011;41754;51.498;7.540;2022-12-10T12:47:11;35.47;;;22.07;;
16189;SDS011;41754;51.498;7.540;2022-12-10T12:49:46;41.80;;;24.00;;
16189;SDS011;41754;51.498;7.540;2022-12-10T12:52:25;36.10;;;22.93;;
16189;SDS011;41754;51.498;7.540;2022-12-10T12:55:00;39.37;;;23.97;;
16189;SDS011;41754;51.498;7.540;2022-12-10T12:57:32;41.27;;;23.63;;
16189;SDS011;41754;51.498;7.540;2022-12-10T13:00:04;36.83;;;21.67;;
16189;SDS011;41754;51.498;7.540;2022-12-10T13:02:45;40.60;;;23.87;;
16189;SDS011;41754;51.498;7.540;2022-12-10T13:05:19;37.57;;;22.70;;
16189;SDS011;41754;51.498;7.540;2022-12-10T13:10:53;36.30;;;22.83;;
16189;SDS011;41754;51.498;7.540;2022-12-10T13:13:22;40.47;;;22.90;;
16189;SDS011;41754;51.498;7.540;2022-12-10T13:15:51;39.50;;;25.13;;
16189;SDS011;41754;51.498;7.540;2022-12-10T13:18:22;45.23;;;25.93;;
16189;SDS011;41754;51.498;7.540;2022-12-10T13:21:17;46.83;;;23.67;;
16189;SDS011;41754;51.498;7.540;2022-12-10T13:23:54;42.93;;;24.93;;
16189;SDS011;41754;51.498;7.540;2022-12-10T13:26:34;39.23;;;23.07;;
16189;SDS011;41754;51.498;7.540;2022-12-10T13:29:18;39.63;;;23.73;;
16189;SDS011;41754;51.498;7.540;2022-12-10T13:32:01;39.83;;;24.00;;
16189;SDS011;41754;51.498;7.540;2022-12-10T13:34:31;38.00;;;22.10;;
16189;SDS011;41754;51.498;7.540;2022-12-10T13:40:13;39.60;;;23.47;;
16189;SDS011;41754;51.498;7.540;2022-12-10T13:42:44;38.87;;;23.43;;
16189;SDS011;41754;51.498;7.540;2022-12-10T13:45:31;43.33;;;23.67;;
16189;SDS011;41754;51.498;7.540;2022-12-10T13:51:13;39.40;;;22.97;;
16189;SDS011;41754;51.498;7.540;2022-12-10T13:53:51;39.87;;;22.73;;
16189;SDS011;41754;51.498;7.540;2022-12-10T13:56:29;38.10;;;21.77;;
16189;SDS011;41754;51.498;7.540;2022-12-10T13:59:08;44.80;;;26.77;;
16189;SDS011;41754;51.498;7.540;2022-12-10T14:01:46;37.93;;;22.10;;
16189;SDS011;41754;51.498;7.540;2022-12-10T14:04:34;41.43;;;23.67;;
16189;SDS011;41754;51.498;7.540;2022-12-10T14:07:10;34.57;;;20.50;;
16189;SDS011;41754;51.498;7.540;2022-12-10T14:09:40;37.50;;;21.23;;
16189;SDS011;41754;51.498;7.540;2022-12-10T14:12:13;33.43;;;20.13;;
16189;SDS011;41754;51.498;7.540;2022-12-10T14:14:45;50.50;;;31.70;;
16189;SDS011;41754;51.498;7.540;2022-12-10T14:17:15;30.00;;;18.97;;
16189;SDS011;41754;51.498;7.540;2022-12-10T14:19:46;38.93;;;23.77;;
16189;SDS011;41754;51.498;7.540;2022-12-10T14:22:16;29.63;;;19.17;;
16189;SDS011;41754;51.498;7.540;2022-12-10T14:24:45;29.20;;;18.60;;
16189;SDS011;41754;51.498;7.540;2022-12-10T14:27:16;34.00;;;19.77;;
16189;SDS011;41754;51.498;7.540;2022-12-10T14:29:46;34.87;;;21.10;;
16189;SDS011;41754;51.498;7.540;2022-12-10T14:32:17;33.50;;;20.23;;
16189;SDS011;41754;51.498;7.540;2022-12-10T14:34:47;37.37;;;21.33;;
16189;SDS011;41754;51.498;7.540;2022-12-10T14:37:19;34.27;;;20.70;;
16189;SDS011;41754;51.498;7.540;2022-12-10T14:39:51;33.87;;;19.80;;
16189;SDS011;41754;51.498;7.540;2022-12-10T14:42:19;35.77;;;20.77;;
16189;SDS011;41754;51.498;7.540;2022-12-10T14:44:50;30.50;;;18.83;;
16189;SDS011;41754;51.498;7.540;2022-12-10T14:47:20;30.57;;;18.57;;
16189;SDS011;41754;51.498;7.540;2022-12-10T14:49:50;32.10;;;21.20;;
16189;SDS011;41754;51.498;7.540;2022-12-10T14:52:20;36.60;;;21.03;;
16189;SDS011;41754;51.498;7.540;2022-12-10T14:54:48;39.67;;;22.30;;
16189;SDS011;41754;51.498;7.540;2022-12-10T14:57:18;42.57;;;23.20;;